YCAR

Details ICAO YCAR (CVQ)
Name Carnarvon
Region Australia
Timezone Australia/Perth (UTC+8.0)
Plans Departing 7
Arriving 13
Stats Elevation 13 ft / 4 m (AMSL)
Location -24.882726° 113.667939°
Runways 2
Magnetic Variation 0.337° W
Sunrise 2018-05-23 22:59:57 UTC / 2018-05-24 06:59:57 Local
Sunset 2018-05-24 09:47:11 UTC / 2018-05-24 17:47:11 Local
Advertisement - Login to hide

Runways

ID Width Length Bearing (true) Bearing (mag) Surface Threshold Offset Overrun Length
04 98 ft / 30 m 5,385 ft / 1,641 m 43.27° 43.61° Asphalt 0 ft / 0 m 0 ft / 0 m
18 98 ft / 30 m 3,860 ft / 1,177 m 179.23° 179.57° Asphalt 0 ft / 0 m 0 ft / 0 m
22 98 ft / 30 m 5,385 ft / 1,641 m 223.26° 223.60° Asphalt 0 ft / 0 m 266 ft / 81 m
36 98 ft / 30 m 3,860 ft / 1,177 m 359.23° 359.57° Asphalt 161 ft / 49 m 0 ft / 0 m

Map

Weather


0- 5 10 15 20 25 30 35+ Temperature / ° C

Clouds and Precipitation
Forecast for 2018-05-24 12:00 UTC. Updated 5 hours ago

Ground ~20,000 ft ~40,000 ft Winds

METAR

YCAR 241600Z AUTO 25018KT 9999 // SCT017 SCT024 OVC031 22/20 Q1008

TAF

Not found

Frequencies

Unicom 126.70 MHz CTAF
Warning: Do not use this data for real-world aviation or navigation. No guarantee of current accuracy is given.